Weather at Aitutaki Airport

Public forecast

Using degrees Celsius for public forecast. Weather courtesy of forecast.io.

Current aviation weather report (METAR) for Aitutaki Airport

Retrieved 2022/01/19 13:00 UTC (17 minutes ago):

NCAI 191300Z AUTO 16003KT //// ////// 26/25 Q1002

Aviation forecast (TAF) for Aitutaki Airport

Forecast is more than 12 hours old.

Retrieved 2018/02/21 16:17 UTC (4 years ago):

TAF NCAI 211519Z 2116/2205 03012KT 9999 -SHRA SCT018 BKN015 BKN100 TEMPO 2116/2205 3000 TSRA BKN015 FEW018CB